createdAt,value
2019-03-11T00:00:26.694Z,98872.90
2019-03-11T00:02:53.084Z,98876.05
2019-03-11T00:05:19.283Z,98877.32
2019-03-11T00:07:45.438Z,98877.41
2019-03-11T00:10:11.729Z,98884.33
2019-03-11T00:12:37.880Z,98889.92
2019-03-11T00:15:06.850Z,98889.12
2019-03-11T00:17:33.148Z,98889.25
2019-03-11T00:19:59.299Z,98884.52
2019-03-11T00:22:25.459Z,98881.80
2019-03-11T00:24:51.756Z,98888.37
2019-03-11T00:27:17.907Z,98893.06
2019-03-11T00:29:44.078Z,98889.30
2019-03-11T00:32:10.251Z,98890.20
2019-03-11T00:34:36.439Z,98890.02
2019-03-11T00:37:02.592Z,98890.68
2019-03-11T00:39:28.791Z,98892.08
2019-03-11T00:41:54.957Z,98895.00
2019-03-11T00:44:21.102Z,98888.71
2019-03-11T00:46:47.291Z,98896.25
2019-03-11T00:49:13.451Z,98901.19
2019-03-11T00:51:39.607Z,98894.53
2019-03-11T00:54:05.806Z,98904.68
2019-03-11T00:56:31.963Z,98897.68
2019-03-11T00:58:58.175Z,98897.23
2019-03-11T01:01:24.463Z,98901.95
2019-03-11T01:03:50.615Z,98900.56
2019-03-11T01:06:16.919Z,98900.42
2019-03-11T01:08:43.105Z,98902.73
2019-03-11T01:11:09.269Z,98907.84
2019-03-11T01:13:35.423Z,98908.97
2019-03-11T01:16:01.622Z,98916.32
2019-03-11T01:18:28.079Z,98907.31
2019-03-11T01:20:54.235Z,98901.97
2019-03-11T01:23:20.428Z,98910.66
2019-03-11T01:25:46.591Z,98913.98
2019-03-11T01:28:12.750Z,98906.64
2019-03-11T01:30:38.927Z,98917.90
2019-03-11T01:33:05.088Z,98924.13
2019-03-11T01:35:31.345Z,98921.13
2019-03-11T01:37:57.622Z,98921.36
2019-03-11T01:40:23.778Z,98923.70
2019-03-11T01:42:51.713Z,98923.17
2019-03-11T01:45:18.435Z,98923.34
2019-03-11T01:47:44.600Z,98918.11
2019-03-11T01:50:12.660Z,98928.78
2019-03-11T01:52:38.854Z,98933.02
2019-03-11T01:55:07.141Z,98944.83
2019-03-11T01:57:33.294Z,98939.19
2019-03-11T01:59:59.484Z,98940.10
2019-03-11T02:02:25.775Z,98941.29
2019-03-11T02:04:51.905Z,98942.39
2019-03-11T02:07:18.223Z,98943.50
2019-03-11T02:09:44.390Z,98946.45
2019-03-11T02:12:10.659Z,98950.47
2019-03-11T02:14:36.859Z,98951.18
2019-03-11T02:17:03.006Z,98946.70
2019-03-11T02:19:29.164Z,98943.27
2019-03-11T02:21:55.347Z,98946.68
2019-03-11T02:24:21.505Z,98941.91
2019-03-11T02:26:47.767Z,98939.78
2019-03-11T02:29:13.960Z,98948.28
2019-03-11T02:31:40.149Z,98948.11
2019-03-11T02:34:06.297Z,98947.21
2019-03-11T02:36:32.593Z,98951.00
2019-03-11T02:38:58.842Z,98939.51
2019-03-11T02:41:25.005Z,98946.25
2019-03-11T02:43:51.301Z,98949.51
2019-03-11T02:46:17.451Z,98947.48
2019-03-11T02:48:43.609Z,98947.53
2019-03-11T02:51:09.803Z,98950.27
2019-03-11T02:53:35.952Z,98955.69
2019-03-11T02:56:02.120Z,98959.24
2019-03-11T02:58:28.323Z,98959.09
2019-03-11T03:00:56.370Z,98950.99
2019-03-11T03:03:39.251Z,98960.41
2019-03-11T03:06:07.328Z,98961.42
2019-03-11T03:08:33.489Z,98954.70
2019-03-11T03:10:59.681Z,98956.09
2019-03-11T03:13:25.831Z,98954.86
2019-03-11T03:15:51.994Z,98956.18
2019-03-11T03:18:18.208Z,98959.00
2019-03-11T03:20:44.353Z,98959.38
2019-03-11T03:23:10.635Z,98962.54
2019-03-11T03:25:36.811Z,98963.68
2019-03-11T03:28:03.126Z,98955.80
2019-03-11T03:30:29.469Z,98958.30
2019-03-11T03:32:55.815Z,98958.69
2019-03-11T03:35:22.151Z,98973.17
2019-03-11T03:37:48.328Z,98963.89
2019-03-11T03:40:15.237Z,98970.91
2019-03-11T03:42:41.626Z,98971.03
2019-03-11T03:45:22.282Z,98973.17
2019-03-11T03:47:48.770Z,98985.02
2019-03-11T03:50:15.032Z,98991.19
2019-03-11T03:52:41.222Z,98992.77
2019-03-11T03:55:07.485Z,98995.59
2019-03-11T03:57:33.636Z,99006.52
2019-03-11T03:59:59.835Z,99012.63
2019-03-11T04:02:25.991Z,99012.20
2019-03-11T04:04:52.140Z,99011.33
2019-03-11T04:07:18.331Z,99016.84
2019-03-11T04:09:44.544Z,99017.05
2019-03-11T04:12:10.720Z,99017.67
2019-03-11T04:14:36.894Z,99019.36
2019-03-11T04:17:03.159Z,99023.25
2019-03-11T04:19:29.929Z,99022.19
2019-03-11T04:21:56.216Z,99025.18
2019-03-11T04:24:22.377Z,99025.92
2019-03-11T04:26:51.665Z,99031.25
2019-03-11T04:29:17.827Z,99021.80
2019-03-11T04:31:44.085Z,99020.74
2019-03-11T04:34:10.233Z,99024.61
2019-03-11T04:36:36.535Z,99020.78
2019-03-11T04:39:04.414Z,99020.52
2019-03-11T04:41:30.684Z,99015.51
2019-03-11T04:43:56.888Z,99020.56
2019-03-11T04:46:23.044Z,99020.56
2019-03-11T04:48:49.286Z,99037.27
2019-03-11T04:51:15.494Z,99037.48
2019-03-11T04:53:41.770Z,99033.78
2019-03-11T04:56:07.921Z,99035.97
2019-03-11T04:58:34.109Z,99031.88
2019-03-11T05:01:00.373Z,99026.97
2019-03-11T05:03:26.532Z,99038.55
2019-03-11T05:05:52.724Z,99038.62
2019-03-11T05:08:18.999Z,99044.22
2019-03-11T05:10:46.232Z,99044.36
2019-03-11T05:13:12.524Z,99043.38
2019-03-11T05:15:38.685Z,99037.50
2019-03-11T05:18:04.855Z,99045.08
2019-03-11T05:20:31.043Z,99046.95
2019-03-11T05:22:57.267Z,99056.95
2019-03-11T05:25:23.326Z,99050.48
2019-03-11T05:27:49.527Z,99039.53
2019-03-11T05:30:16.991Z,99031.83
2019-03-11T05:32:43.138Z,99045.64
2019-03-11T05:35:09.332Z,99054.28
2019-03-11T05:37:35.491Z,99053.92
2019-03-11T05:40:03.170Z,99055.86
2019-03-11T05:42:29.438Z,99057.25
2019-03-11T05:44:55.596Z,99054.28
2019-03-11T05:47:21.747Z,99060.78
2019-03-11T05:49:47.941Z,99047.42
2019-03-11T05:52:14.105Z,99061.72
2019-03-11T05:54:40.374Z,99056.87
2019-03-11T05:57:06.559Z,99059.72
2019-03-11T05:59:32.711Z,99072.22
2019-03-11T06:01:58.973Z,99067.45
2019-03-11T06:04:25.172Z,99085.34
2019-03-11T06:06:51.426Z,99077.39
2019-03-11T06:09:17.706Z,99085.88
2019-03-11T06:11:43.943Z,99085.52
2019-03-11T06:14:10.101Z,99089.53
2019-03-11T06:16:36.258Z,99080.42
2019-03-11T06:19:02.550Z,99088.98
2019-03-11T06:21:30.595Z,99091.56
2019-03-11T06:23:56.755Z,99104.78
2019-03-11T06:26:22.953Z,99102.44
2019-03-11T06:28:49.121Z,99106.42
2019-03-11T06:31:15.380Z,99113.46
2019-03-11T06:33:41.570Z,99107.27
2019-03-11T06:36:07.732Z,99123.08
2019-03-11T06:38:33.883Z,99117.88
2019-03-11T06:41:00.373Z,99113.41
2019-03-11T06:43:27.682Z,99101.95
2019-03-11T06:45:53.868Z,99106.83
2019-03-11T06:48:20.059Z,99109.87
2019-03-11T06:50:46.219Z,99104.77
2019-03-11T06:53:12.381Z,99097.28
2019-03-11T06:55:38.573Z,99095.13
2019-03-11T06:58:04.736Z,99096.95
2019-03-11T07:00:30.895Z,99094.61
2019-03-11T07:02:57.183Z,99090.03
2019-03-11T07:05:23.442Z,99094.97
2019-03-11T07:07:49.610Z,99094.22
2019-03-11T07:10:16.108Z,99085.81
2019-03-11T07:12:42.303Z,99091.83
2019-03-11T07:15:12.068Z,99084.27
2019-03-11T07:17:38.249Z,99091.18
2019-03-11T07:20:08.119Z,99079.02
2019-03-11T07:22:34.278Z,99088.34
2019-03-11T07:25:00.524Z,99092.45
2019-03-11T07:27:27.793Z,99075.22
2019-03-11T07:29:54.186Z,99087.91
2019-03-11T07:32:20.406Z,99092.43
2019-03-11T07:34:46.574Z,99090.41
2019-03-11T07:37:12.738Z,99097.45
2019-03-11T07:39:38.929Z,99107.65
2019-03-11T07:42:05.095Z,99106.88
2019-03-11T07:44:31.242Z,99102.59
2019-03-11T07:46:57.540Z,99111.69
2019-03-11T07:49:23.698Z,99093.57
2019-03-11T07:51:49.850Z,99099.50
2019-03-11T07:54:16.054Z,99101.53
2019-03-11T07:56:42.318Z,99098.75
2019-03-11T07:59:08.587Z,99102.31
2019-03-11T08:01:34.780Z,99114.06
2019-03-11T08:04:00.929Z,99110.84
2019-03-11T08:06:27.086Z,99115.30
2019-03-11T08:08:53.283Z,99114.37
2019-03-11T08:11:19.447Z,99109.09
2019-03-11T08:13:45.612Z,99108.80
2019-03-11T08:16:11.983Z,99096.09
2019-03-11T08:18:38.257Z,99109.98
2019-03-11T08:21:04.404Z,99091.44
2019-03-11T08:23:30.592Z,99096.92
2019-03-11T08:25:56.856Z,99080.00
2019-03-11T08:28:23.022Z,99087.20
2019-03-11T08:30:49.229Z,99076.55
2019-03-11T08:33:15.402Z,99077.61
2019-03-11T08:35:41.652Z,99072.30
2019-03-11T08:38:07.853Z,99063.95
2019-03-11T08:40:34.008Z,99055.11
2019-03-11T08:43:00.184Z,99043.42
2019-03-11T08:45:26.355Z,99053.41
2019-03-11T08:47:52.513Z,99050.31
2019-03-11T08:50:18.665Z,99051.89
2019-03-11T08:52:44.858Z,99050.36
2019-03-11T08:55:11.198Z,99049.00
2019-03-11T08:57:39.951Z,99035.69
2019-03-11T09:00:20.448Z,99028.39
2019-03-11T09:02:46.617Z,99024.36
2019-03-11T09:05:12.989Z,99034.72
2019-03-11T09:07:39.375Z,99043.27
2019-03-11T09:10:08.632Z,99028.33
2019-03-11T09:12:34.920Z,99023.36
2019-03-11T09:15:01.219Z,99028.23
2019-03-11T09:17:27.457Z,99026.19
2019-03-11T09:19:53.622Z,99009.42
2019-03-11T09:22:19.941Z,99015.08
2019-03-11T09:24:46.104Z,99006.83
2019-03-11T09:27:12.383Z,99005.77
2019-03-11T09:29:38.667Z,99014.22
2019-03-11T09:32:04.820Z,99009.98
2019-03-11T09:34:31.003Z,98995.86
2019-03-11T09:36:57.325Z,99000.63
2019-03-11T09:39:23.503Z,98994.48
2019-03-11T09:41:49.685Z,99001.08
2019-03-11T09:44:16.042Z,98991.55
2019-03-11T09:46:42.206Z,98991.48
2019-03-11T09:49:08.501Z,98993.82
2019-03-11T09:51:34.813Z,98987.98
2019-03-11T09:54:00.993Z,99003.06
2019-03-11T09:56:27.186Z,99002.94
2019-03-11T09:58:53.388Z,98981.75
2019-03-11T10:01:19.575Z,98993.27
2019-03-11T10:03:45.741Z,98983.39
2019-03-11T10:06:12.088Z,98985.95
2019-03-11T10:08:38.248Z,98985.90
2019-03-11T10:11:04.429Z,98983.24
2019-03-11T10:13:30.759Z,98976.95
2019-03-11T10:15:57.066Z,98955.84
2019-03-11T10:18:23.232Z,98973.75
2019-03-11T10:20:49.978Z,98963.64
2019-03-11T10:23:16.136Z,98967.64
2019-03-11T10:25:42.292Z,98960.95
2019-03-11T10:28:08.591Z,98952.00
2019-03-11T10:30:34.754Z,98944.30
2019-03-11T10:33:00.929Z,98947.64
2019-03-11T10:35:31.948Z,98956.83
2019-03-11T10:37:55.237Z,98952.62
2019-03-11T10:40:35.141Z,98956.37
2019-03-11T10:43:01.428Z,98950.05
2019-03-11T10:45:31.552Z,98950.43
2019-03-11T10:47:55.821Z,98948.52
2019-03-11T10:50:22.080Z,98952.73
2019-03-11T10:52:48.364Z,98947.21
2019-03-11T10:55:17.977Z,98942.34
2019-03-11T10:57:44.138Z,98935.55
2019-03-11T11:00:22.408Z,98929.78
2019-03-11T11:02:48.660Z,98937.48
2019-03-11T11:05:14.820Z,98936.73
2019-03-11T11:07:41.053Z,98926.55
2019-03-11T11:10:10.486Z,98932.07
2019-03-11T11:12:36.642Z,98917.92
2019-03-11T11:15:06.247Z,98917.24
2019-03-11T11:17:32.414Z,98913.34
2019-03-11T11:20:03.185Z,98915.98
2019-03-11T11:22:26.662Z,98910.48
2019-03-11T11:24:53.035Z,98916.55
2019-03-11T11:27:19.196Z,98909.75
2019-03-11T11:29:45.410Z,98901.80
2019-03-11T11:32:11.573Z,98896.09
2019-03-11T11:34:37.766Z,98886.00
2019-03-11T11:37:03.940Z,98874.88
2019-03-11T11:39:30.199Z,98880.41
2019-03-11T11:41:56.356Z,98873.95
2019-03-11T11:44:22.659Z,98872.05
2019-03-11T11:46:48.947Z,98880.57
2019-03-11T11:49:15.110Z,98877.02
2019-03-11T11:51:41.306Z,98873.02
2019-03-11T11:54:07.466Z,98858.42
2019-03-11T11:56:34.050Z,98872.30
2019-03-11T11:59:00.243Z,98873.42
2019-03-11T12:01:26.507Z,98874.77
2019-03-11T12:03:52.680Z,98870.80
2019-03-11T12:06:18.858Z,98879.12
2019-03-11T12:08:45.048Z,98865.36
2019-03-11T12:11:11.176Z,98871.03
2019-03-11T12:13:37.389Z,98871.19
2019-03-11T12:16:03.537Z,98866.94
2019-03-11T12:18:30.740Z,98873.19
2019-03-11T12:20:56.942Z,98872.11
2019-03-11T12:23:23.107Z,98874.02
2019-03-11T12:25:49.439Z,98863.47
2019-03-11T12:28:15.615Z,98854.08
2019-03-11T12:30:41.759Z,98863.64
2019-03-11T12:33:07.915Z,98869.55
2019-03-11T12:35:34.113Z,98872.09
2019-03-11T12:38:00.302Z,98865.23
2019-03-11T12:40:26.559Z,98864.00
2019-03-11T12:42:52.976Z,98873.52
2019-03-11T12:45:20.453Z,98871.86
2019-03-11T12:47:47.114Z,98869.36
2019-03-11T12:50:21.796Z,98860.34
2019-03-11T12:52:48.056Z,98859.62
2019-03-11T12:55:14.213Z,98875.02
2019-03-11T12:57:40.403Z,98864.31
2019-03-11T13:00:16.209Z,98866.17
2019-03-11T13:02:42.390Z,98869.33
2019-03-11T13:05:09.858Z,98858.34
2019-03-11T13:07:38.510Z,98850.06
2019-03-11T13:10:07.700Z,98846.42
2019-03-11T13:12:33.855Z,98847.56
2019-03-11T13:15:00.015Z,98841.66
2019-03-11T13:17:26.218Z,98841.05
2019-03-11T13:19:52.385Z,98841.12
2019-03-11T13:22:18.698Z,98837.13
2019-03-11T13:24:44.884Z,98835.72
2019-03-11T13:27:11.155Z,98840.53
2019-03-11T13:29:37.418Z,98846.29
2019-03-11T13:32:03.610Z,98850.33
2019-03-11T13:34:29.773Z,98849.19
2019-03-11T13:36:55.926Z,98840.59
2019-03-11T13:39:22.119Z,98838.05
2019-03-11T13:41:48.293Z,98840.59
2019-03-11T13:44:14.435Z,98831.55
2019-03-11T13:46:40.635Z,98843.84
2019-03-11T13:49:06.787Z,98835.98
2019-03-11T13:51:32.951Z,98837.22
2019-03-11T13:53:59.137Z,98837.50
2019-03-11T13:56:25.299Z,98828.75
2019-03-11T13:58:51.455Z,98816.33
2019-03-11T14:01:17.754Z,98824.84
2019-03-11T14:03:43.915Z,98828.67
2019-03-11T14:06:10.176Z,98807.65
2019-03-11T14:08:36.363Z,98804.23
2019-03-11T14:11:02.998Z,98815.33
2019-03-11T14:13:29.188Z,98821.64
2019-03-11T14:15:57.072Z,98810.16
2019-03-11T14:18:23.439Z,98799.31
2019-03-11T14:20:51.316Z,98804.40
2019-03-11T14:23:17.517Z,98808.66
2019-03-11T14:25:43.673Z,98796.78
2019-03-11T14:28:09.874Z,98801.68
2019-03-11T14:30:36.065Z,98795.47
2019-03-11T14:33:02.228Z,98801.42
2019-03-11T14:35:28.395Z,98805.76
2019-03-11T14:37:54.999Z,98812.05
2019-03-11T14:40:21.152Z,98812.36
2019-03-11T14:42:47.322Z,98809.40
2019-03-11T14:45:16.030Z,98813.09
2019-03-11T14:47:42.190Z,98803.73
2019-03-11T14:50:10.953Z,98806.01
2019-03-11T14:52:37.756Z,98805.86
2019-03-11T14:55:06.103Z,98804.70
2019-03-11T14:57:32.391Z,98804.48
2019-03-11T14:59:58.580Z,98810.11
2019-03-11T15:02:24.737Z,98806.81
2019-03-11T15:04:52.201Z,98808.02
2019-03-11T15:07:18.601Z,98816.50
2019-03-11T15:09:51.387Z,98813.88
2019-03-11T15:12:12.926Z,98815.09
2019-03-11T15:14:39.127Z,98821.17
2019-03-11T15:17:05.289Z,98810.67
2019-03-11T15:19:31.514Z,98810.45
2019-03-11T15:21:57.825Z,98807.88
2019-03-11T15:24:23.964Z,98816.02
2019-03-11T15:26:50.148Z,98816.55
2019-03-11T15:29:16.348Z,98825.66
2019-03-11T15:31:42.508Z,98819.00
2019-03-11T15:34:08.675Z,98822.36
2019-03-11T15:36:35.002Z,98827.69
2019-03-11T15:39:01.537Z,98821.28
2019-03-11T15:41:27.801Z,98829.45
2019-03-11T15:43:54.137Z,98825.75
2019-03-11T15:46:20.288Z,98818.89
2019-03-11T15:48:46.456Z,98824.32
2019-03-11T15:51:12.660Z,98818.36
2019-03-11T15:53:38.821Z,98815.69
2019-03-11T15:56:04.976Z,98814.63
2019-03-11T15:58:31.261Z,98811.56
2019-03-11T16:00:57.528Z,98815.22
2019-03-11T16:03:23.694Z,98821.72
2019-03-11T16:05:49.869Z,98810.47
2019-03-11T16:08:16.130Z,98811.17
2019-03-11T16:10:42.288Z,98806.51
2019-03-11T16:13:08.594Z,98802.64
2019-03-11T16:15:34.764Z,98807.78
2019-03-11T16:18:00.921Z,98801.39
2019-03-11T16:20:27.235Z,98809.59
2019-03-11T16:22:53.872Z,98802.08
2019-03-11T16:25:20.430Z,98805.98
2019-03-11T16:27:46.642Z,98804.38
2019-03-11T16:30:21.301Z,98808.20
2019-03-11T16:32:58.206Z,98800.83
2019-03-11T16:35:15.861Z,98808.31
2019-03-11T16:37:42.014Z,98808.64
2019-03-11T16:40:11.305Z,98805.97
2019-03-11T16:42:42.622Z,98804.94
2019-03-11T16:45:10.448Z,98803.17
2019-03-11T16:47:36.637Z,98805.92
2019-03-11T16:50:05.601Z,98805.65
2019-03-11T16:52:31.788Z,98803.31
2019-03-11T16:54:57.972Z,98809.98
2019-03-11T16:57:24.137Z,98807.77
2019-03-11T16:59:50.299Z,98805.71
2019-03-11T17:02:16.602Z,98813.11
2019-03-11T17:04:42.760Z,98810.36
2019-03-11T17:07:08.932Z,98807.25
2019-03-11T17:09:35.110Z,98809.70
2019-03-11T17:12:01.269Z,98815.14
2019-03-11T17:14:27.529Z,98810.30
2019-03-11T17:16:53.736Z,98802.42
2019-03-11T17:19:19.891Z,98800.01
2019-03-11T17:21:46.043Z,98805.59
2019-03-11T17:24:12.339Z,98804.31
2019-03-11T17:26:38.506Z,98806.34
2019-03-11T17:29:04.698Z,98804.43
2019-03-11T17:31:30.884Z,98796.09
2019-03-11T17:33:57.046Z,98804.67
2019-03-11T17:36:23.215Z,98797.56
2019-03-11T17:38:49.412Z,98797.80
2019-03-11T17:41:15.577Z,98794.09
2019-03-11T17:43:41.855Z,98801.28
2019-03-11T17:46:08.043Z,98796.97
2019-03-11T17:48:34.207Z,98807.30
2019-03-11T17:51:00.368Z,98812.03
2019-03-11T17:53:26.561Z,98813.36
2019-03-11T17:55:52.730Z,98821.83
2019-03-11T17:58:21.059Z,98819.41
2019-03-11T18:00:55.617Z,98827.87
2019-03-11T18:03:17.270Z,98822.94
2019-03-11T18:05:43.425Z,98828.41
2019-03-11T18:08:09.609Z,98830.87
2019-03-11T18:10:35.869Z,98843.28
2019-03-11T18:13:02.143Z,98846.20
2019-03-11T18:15:28.337Z,98837.86
2019-03-11T18:17:54.624Z,98837.45
2019-03-11T18:20:20.810Z,98831.45
2019-03-11T18:22:47.115Z,98834.43
2019-03-11T18:25:14.735Z,98833.37
2019-03-11T18:27:40.914Z,98835.27
2019-03-11T18:30:16.299Z,98832.83
2019-03-11T18:32:42.717Z,98839.12
2019-03-11T18:35:08.873Z,98838.28
2019-03-11T18:37:35.287Z,98829.78
2019-03-11T18:40:01.686Z,98820.77
2019-03-11T18:42:28.508Z,98814.74
2019-03-11T18:44:54.795Z,98814.20
2019-03-11T18:47:20.957Z,98827.02
2019-03-11T18:49:47.154Z,98834.73
2019-03-11T18:52:13.313Z,98844.30
2019-03-11T18:54:39.519Z,98841.03
2019-03-11T18:57:05.753Z,98834.14
2019-03-11T18:59:31.948Z,98835.22
2019-03-11T19:01:58.101Z,98835.48
2019-03-11T19:04:24.271Z,98833.87
2019-03-11T19:06:50.468Z,98831.70
2019-03-11T19:09:16.645Z,98837.19
2019-03-11T19:11:42.936Z,98839.02
2019-03-11T19:14:09.141Z,98837.96
2019-03-11T19:16:35.294Z,98845.17
2019-03-11T19:19:01.469Z,98854.66
2019-03-11T19:21:27.652Z,98858.03
2019-03-11T19:23:53.787Z,98851.66
2019-03-11T19:26:20.227Z,98861.41
2019-03-11T19:28:46.432Z,98870.77
2019-03-11T19:31:12.603Z,98870.38
2019-03-11T19:33:38.758Z,98871.01
2019-03-11T19:36:04.917Z,98879.37
2019-03-11T19:38:31.093Z,98883.50
2019-03-11T19:40:57.264Z,98881.23
2019-03-11T19:43:23.563Z,98881.56
2019-03-11T19:45:49.853Z,98882.10
2019-03-11T19:48:15.990Z,98894.13
2019-03-11T19:50:42.206Z,98893.14
2019-03-11T19:53:08.330Z,98891.91
2019-03-11T19:55:34.481Z,98902.67
2019-03-11T19:58:00.735Z,98907.11
2019-03-11T20:00:26.964Z,98916.52
2019-03-11T20:02:53.323Z,98912.16
2019-03-11T20:05:24.851Z,98924.95
2019-03-11T20:07:51.091Z,98919.29
2019-03-11T20:10:17.505Z,98925.92
2019-03-11T20:12:43.679Z,98931.67
2019-03-11T20:15:10.588Z,98928.33
2019-03-11T20:17:36.913Z,98929.39
2019-03-11T20:20:06.436Z,98934.19
2019-03-11T20:22:32.687Z,98950.70
2019-03-11T20:24:58.976Z,98962.95
2019-03-11T20:27:26.174Z,98941.03
2019-03-11T20:29:52.423Z,98955.69
2019-03-11T20:32:18.602Z,98957.98
2019-03-11T20:34:44.833Z,98952.09
2019-03-11T20:37:10.966Z,98964.80
2019-03-11T20:39:37.150Z,98974.20
2019-03-11T20:42:03.388Z,98972.92
2019-03-11T20:44:29.722Z,98974.75
2019-03-11T20:46:55.886Z,98973.73
2019-03-11T20:49:22.204Z,98983.45
2019-03-11T20:51:48.370Z,98983.13
2019-03-11T20:54:14.646Z,98980.79
2019-03-11T20:56:40.822Z,98977.94
2019-03-11T20:59:07.047Z,98977.19
2019-03-11T21:01:33.268Z,98981.23
2019-03-11T21:03:59.552Z,98982.70
2019-03-11T21:06:25.825Z,98973.20
2019-03-11T21:08:52.011Z,98981.42
2019-03-11T21:11:18.187Z,99001.90
2019-03-11T21:13:44.492Z,99015.81
2019-03-11T21:16:10.655Z,99011.81
2019-03-11T21:18:37.018Z,99014.69
2019-03-11T21:21:05.157Z,99015.86
2019-03-11T21:23:31.335Z,99014.41
2019-03-11T21:25:57.553Z,99012.63
2019-03-11T21:28:23.808Z,99005.20
2019-03-11T21:30:50.057Z,99008.82
2019-03-11T21:33:16.338Z,99007.80
2019-03-11T21:35:42.490Z,98996.74
2019-03-11T21:38:08.681Z,98995.84
2019-03-11T21:40:34.913Z,99010.86
2019-03-11T21:43:01.158Z,99010.98
2019-03-11T21:45:33.897Z,99011.48
2019-03-11T21:47:55.512Z,99023.88
2019-03-11T21:50:22.994Z,99017.92
2019-03-11T21:52:49.202Z,99020.17
2019-03-11T21:55:15.389Z,99019.05
2019-03-11T21:57:41.601Z,99014.14
2019-03-11T22:00:14.250Z,99016.81
2019-03-11T22:02:40.485Z,99008.48
2019-03-11T22:05:06.752Z,99012.03
2019-03-11T22:07:33.830Z,99009.38
2019-03-11T22:10:00.025Z,99001.31
2019-03-11T22:12:26.189Z,99008.19
2019-03-11T22:14:52.359Z,99001.36
2019-03-11T22:17:18.548Z,99004.39
2019-03-11T22:19:44.714Z,98995.81
2019-03-11T22:22:10.879Z,99000.99
2019-03-11T22:24:37.082Z,99006.10
2019-03-11T22:27:03.570Z,99009.98
2019-03-11T22:29:29.796Z,99006.99
2019-03-11T22:31:55.983Z,99015.47
2019-03-11T22:34:22.146Z,99008.13
2019-03-11T22:36:48.353Z,99019.52
2019-03-11T22:39:14.513Z,99024.08
2019-03-11T22:41:40.783Z,99017.08
2019-03-11T22:44:06.946Z,99025.89
2019-03-11T22:46:33.142Z,99028.41
2019-03-11T22:48:59.304Z,99026.85
2019-03-11T22:51:25.469Z,99040.27
2019-03-11T22:53:51.945Z,99037.77
2019-03-11T22:56:18.134Z,99036.92
2019-03-11T22:58:44.293Z,99036.00
2019-03-11T23:03:57.146Z,99040.06
2019-03-11T23:06:23.344Z,99041.69
2019-03-11T23:08:49.501Z,99024.78
2019-03-11T23:11:15.666Z,99040.36
2019-03-11T23:13:41.864Z,99042.52
2019-03-11T23:16:08.029Z,99033.09
2019-03-11T23:18:34.192Z,99044.02
2019-03-11T23:21:00.379Z,99049.87
2019-03-11T23:23:26.540Z,99049.55
2019-03-11T23:25:52.707Z,99062.95
2019-03-11T23:28:18.893Z,99050.63
2019-03-11T23:30:45.055Z,99056.56
2019-03-11T23:33:11.218Z,99063.00
2019-03-11T23:35:37.408Z,99060.45
2019-03-11T23:38:03.575Z,99063.44
2019-03-11T23:40:29.740Z,99064.88
2019-03-11T23:42:56.026Z,99069.09
2019-03-11T23:45:22.189Z,99066.95
2019-03-11T23:47:48.344Z,99059.25
2019-03-11T23:50:14.542Z,99061.20
2019-03-11T23:52:40.695Z,99059.02
2019-03-11T23:55:09.251Z,99047.11
2019-03-11T23:57:35.436Z,99052.71
